Airfield :
LOGIN :

Register | Disclaimer

   EN    FR    IT 

 










Legend :    VFR   Marginal VFR   IFR   Intensive IFR   Very Intensive IFR
Visi :
Ceiling :
>= 8 km
>= 3000ft
5 to 8 km
1000 to 3000 ft
1500m to 5 km
500 to 1000 ft
800 to 1500m
200 to 500 ft
< 800m
< 200 ft
Symbols :   Thunderstorms  Fog  Heavy snow  Heavy precipitations  Wind > 20 kt
SIGMETs :     Misc.  Thunderstorms  Icing  Turbulence  Mountain Waves  Volcanic Ashes







- Airport Elevation : 427 ft
- IATA code : KBP


UKBB - Boryspil'

CURRENT METAR :
  • 241600Z 02006MPS CAVOK 29/17 Q1020 R88/CLRD// NOSIG

EXPIRED METARs :
  • 241530Z 03006MPS CAVOK 29/17 Q1020 R88/CLRD// NOSIG
  • 241500Z 03006MPS CAVOK 29/16 Q1020 R88/D NOSIG
  • 241430Z 03006MPS CAVOK 30/18 Q1020 R88/CLRD// NOSIG
  • 241400Z 02006MPS 350V050 CAVOK 30/18 Q1019 R88/CLRD// NOSIG
  • 241330Z 04006MPS CAVOK 31/18 Q1020 R88/D NOSIG

TAF TAF UKBB
Valid from the 24 at 12:00 until the 25 at 12:00 UTC


241101Z 2412/2512 02005G11MPS 9999 BKN030 TX31/2413Z TN16/2502Z
TEMPO 2412/2418 VRB10G19MPS 1000 TSRAGR SQ SCT006 BKN020CB
TEMPO 2420/2506 2000 BR SCT007
No reported NOTAMs for that airfield.



MET'MAP, your aeronautical weather chart ! - Copyright ORBIFLY December 2007 - Disclaimer

ORBIFLY MET'MAP TEAM :

Programming & Development : Alexandra Zaïnal
Concept & Development : Baudouin d'Aumeries
Co-Development & Prog : Marc-Olivier Méhu
Technical & hardware support : Manuel Goepfert

Contact : metmap@orbifly.com




SOURCES & CREDITS :

   NOAA